Time;durP1;ratioP1;P1;durP2;ratioP2;P2;SDS_P1;SDS_P2;PMS_P1;PMS_P2;Temp;Humidity;BMP_temperature;BMP_pressure;BME280_temperature;BME280_humidity;BME280_pressure;Samples;Min_cycle;Max_cycle;Signal;HPM_P1;HPM_P2
2023/07/11 00:01:08;;;;;;;;;;;16.10;72.30;;;;;;6218329;23;19927;-88
2023/07/11 00:03:33;;;;;;;;;;;16.10;72.30;;;;;;6192151;23;19920;-88
2023/07/11 00:06:04;;;;;;;;;;;16.10;72.20;;;;;;6192582;23;20541;-88
2023/07/11 00:08:30;;;;;;;;;;;16.00;72.60;;;;;;6208408;23;20007;-88
2023/07/11 00:10:56;;;;;;;;;;;16.00;72.50;;;;;;6192174;23;19943;-88
2023/07/11 00:13:22;;;;;;;;;;;16.00;73.10;;;;;;6190477;23;20357;-87
2023/07/11 00:15:57;;;;;;;;;;;16.00;73.30;;;;;;6217424;23;19919;-87
2023/07/11 00:18:23;;;;;;;;;;;16.00;72.90;;;;;;6182848;23;19920;-88
2023/07/11 00:20:48;;;;;;;;;;;16.00;72.30;;;;;;6167242;23;19919;-88
2023/07/11 00:23:14;;;;;;;;;;;16.00;72.20;;;;;;6190301;23;20346;-88
2023/07/11 00:25:40;;;;;;;;;;;16.00;72.20;;;;;;6217369;23;19965;-88
2023/07/11 00:28:05;;;;;;;;;;;16.00;71.90;;;;;;6157234;23;19942;-88
2023/07/11 00:30:31;;;;;;;;;;;16.00;72.10;;;;;;6192152;23;19919;-88
2023/07/11 00:32:56;;;;;;;;;;;16.00;72.10;;;;;;6190152;23;19920;-88
2023/07/11 00:35:22;;;;;;;;;;;16.00;72.20;;;;;;6168915;23;20002;-88
2023/07/11 00:37:48;;;;;;;;;;;15.90;72.70;;;;;;6186337;23;19927;-88
2023/07/11 00:40:13;;;;;;;;;;;15.90;73.30;;;;;;6193887;23;19923;-88
2023/07/11 00:42:40;;;;;;;;;;;15.90;72.80;;;;;;6192245;23;19920;-88
2023/07/11 00:45:28;;;;;;;;;;;15.90;72.60;;;;;;6193629;23;19920;-88
2023/07/11 00:47:54;;;;;;;;;;;15.90;72.30;;;;;;6210028;23;20345;-88
2023/07/11 00:50:20;;;;;;;;;;;15.90;72.20;;;;;;6218781;23;19919;-88
2023/07/11 00:52:45;;;;;;;;;;;15.90;72.80;;;;;;6192316;23;19926;-88
2023/07/11 00:55:13;;;;;;;;;;;15.90;72.40;;;;;;6193751;23;19919;-88
2023/07/11 00:57:40;;;;;;;;;;;15.90;72.10;;;;;;6183348;23;19928;-88
2023/07/11 01:00:06;;;;;;;;;;;15.90;72.20;;;;;;6193950;23;19962;-88
2023/07/11 01:02:33;;;;;;;;;;;15.80;72.10;;;;;;6167752;23;19919;-88
2023/07/11 01:04:59;;;;;;;;;;;15.80;71.90;;;;;;6193453;23;19991;-88
2023/07/11 01:07:27;;;;;;;;;;;15.80;71.70;;;;;;6184138;23;20334;-88
2023/07/11 01:09:53;;;;;;;;;;;15.80;71.50;;;;;;6193347;23;19920;-88
2023/07/11 01:12:19;;;;;;;;;;;15.80;71.50;;;;;;6192250;23;19926;-88
2023/07/11 01:14:46;;;;;;;;;;;15.80;71.60;;;;;;6193929;23;20241;-88
2023/07/11 01:17:21;;;;;;;;;;;15.80;71.90;;;;;;6183663;23;19930;-88
2023/07/11 01:19:46;;;;;;;;;;;15.80;71.70;;;;;;6193810;23;19926;-88
2023/07/11 01:22:12;;;;;;;;;;;15.80;71.60;;;;;;6191360;23;19919;-88
2023/07/11 01:24:37;;;;;;;;;;;15.80;72.70;;;;;;6168666;23;20126;-88
2023/07/11 01:27:04;;;;;;;;;;;15.90;72.10;;;;;;6183540;23;19919;-88
2023/07/11 01:29:29;;;;;;;;;;;15.90;72.10;;;;;;6193697;23;20411;-87
2023/07/11 01:31:55;;;;;;;;;;;15.90;73.10;;;;;;6193575;23;19955;-88
2023/07/11 01:34:21;;;;;;;;;;;15.90;72.80;;;;;;6191844;23;19919;-88
2023/07/11 01:36:46;;;;;;;;;;;16.00;72.80;;;;;;6186244;23;19916;-88
2023/07/11 01:39:12;;;;;;;;;;;16.00;72.50;;;;;;6192172;23;19919;-88
2023/07/11 01:41:38;;;;;;;;;;;16.00;72.10;;;;;;6218123;23;19930;-88
2023/07/11 01:44:03;;;;;;;;;;;16.00;72.00;;;;;;6191921;23;19928;-88
2023/07/11 01:46:29;;;;;;;;;;;16.00;73.10;;;;;;6187660;23;19916;-89
2023/07/11 01:48:54;;;;;;;;;;;16.00;73.00;;;;;;6188824;23;19994;-88
2023/07/11 01:51:20;;;;;;;;;;;16.00;72.90;;;;;;6193138;23;19947;-88
2023/07/11 01:53:46;;;;;;;;;;;16.10;73.70;;;;;;6216171;23;20235;-88
2023/07/11 01:56:11;;;;;;;;;;;16.10;73.90;;;;;;6191277;23;19920;-90
2023/07/11 01:58:38;;;;;;;;;;;16.10;73.50;;;;;;6184573;23;19924;-88
2023/07/11 02:01:03;;;;;;;;;;;16.10;73.20;;;;;;6218646;23;19934;-88
2023/07/11 02:03:29;;;;;;;;;;;16.10;73.50;;;;;;6215965;23;19920;-88
2023/07/11 02:05:55;;;;;;;;;;;16.10;73.80;;;;;;6218231;23;19927;-88
2023/07/11 02:08:21;;;;;;;;;;;16.10;73.20;;;;;;6183647;23;19927;-88
2023/07/11 02:10:46;;;;;;;;;;;16.00;73.30;;;;;;6192909;23;19919;-88
2023/07/11 02:13:12;;;;;;;;;;;16.00;73.20;;;;;;6191768;23;19981;-88
2023/07/11 02:15:39;;;;;;;;;;;16.00;73.20;;;;;;6193242;23;19973;-88
2023/07/11 02:18:04;;;;;;;;;;;16.00;73.50;;;;;;6182943;23;19919;-88
2023/07/11 02:20:30;;;;;;;;;;;16.00;73.80;;;;;;6193291;23;20609;-88
2023/07/11 02:22:59;;;;;;;;;;;15.90;73.90;;;;;;6191770;23;20042;-88
2023/07/11 02:25:25;;;;;;;;;;;15.90;73.60;;;;;;6218254;23;19994;-88
2023/07/11 02:27:51;;;;;;;;;;;15.80;73.30;;;;;;6183366;23;20338;-88
2023/07/11 02:30:16;;;;;;;;;;;15.80;73.50;;;;;;6168002;23;19951;-88
2023/07/11 02:32:42;;;;;;;;;;;15.80;73.20;;;;;;6191949;23;19966;-88
2023/07/11 02:35:08;;;;;;;;;;;15.80;73.60;;;;;;6192578;23;19934;-88
2023/07/11 02:37:33;;;;;;;;;;;15.80;73.50;;;;;;6185009;23;19923;-88
2023/07/11 02:39:59;;;;;;;;;;;15.80;73.50;;;;;;6193035;23;19927;-88
2023/07/11 02:42:25;;;;;;;;;;;15.80;73.40;;;;;;6191128;23;19920;-88
2023/07/11 02:44:50;;;;;;;;;;;15.80;73.60;;;;;;6192840;23;19919;-88
2023/07/11 02:47:16;;;;;;;;;;;15.80;74.10;;;;;;6183815;23;19920;-87
2023/07/11 02:49:42;;;;;;;;;;;15.80;74.60;;;;;;6166799;23;19919;-88
2023/07/11 02:52:09;;;;;;;;;;;15.80;74.20;;;;;;6191530;23;19920;-87
2023/07/11 02:54:36;;;;;;;;;;;15.90;73.90;;;;;;6192947;23;19934;-88
2023/07/11 02:57:03;;;;;;;;;;;15.90;73.90;;;;;;6159544;23;19926;-88
2023/07/11 02:59:29;;;;;;;;;;;15.90;73.80;;;;;;6191291;23;19919;-88
2023/07/11 03:01:56;;;;;;;;;;;15.90;73.70;;;;;;6192683;23;20009;-88
2023/07/11 03:04:22;;;;;;;;;;;15.90;73.60;;;;;;6215924;23;19924;-88
2023/07/11 03:06:47;;;;;;;;;;;15.90;73.70;;;;;;6184758;23;19923;-88
2023/07/11 03:09:13;;;;;;;;;;;15.90;73.80;;;;;;6190948;23;19939;-88
2023/07/11 03:11:39;;;;;;;;;;;16.00;73.70;;;;;;6192688;23;19943;-88
2023/07/11 03:14:04;;;;;;;;;;;16.00;75.00;;;;;;6190950;23;19919;-88
2023/07/11 03:16:30;;;;;;;;;;;16.00;75.80;;;;;;6187210;23;19916;-89
2023/07/11 03:18:56;;;;;;;;;;;16.00;75.80;;;;;;6187775;23;19920;-87
2023/07/11 03:21:21;;;;;;;;;;;16.00;75.40;;;;;;6217063;23;20566;-88
2023/07/11 03:23:47;;;;;;;;;;;16.00;74.80;;;;;;6190835;23;19947;-88
2023/07/11 03:26:13;;;;;;;;;;;16.00;74.80;;;;;;6189941;23;19923;-89
2023/07/11 03:28:38;;;;;;;;;;;16.00;75.00;;;;;;6185016;23;19971;-88
2023/07/11 03:31:04;;;;;;;;;;;16.00;75.10;;;;;;6192662;23;19920;-88
2023/07/11 03:33:30;;;;;;;;;;;16.00;75.50;;;;;;6190413;23;20003;-88
2023/07/11 03:35:55;;;;;;;;;;;16.00;75.80;;;;;;6192153;23;19919;-88
2023/07/11 03:38:21;;;;;;;;;;;16.00;75.70;;;;;;6184073;23;19926;-89
2023/07/11 03:40:47;;;;;;;;;;;16.00;76.10;;;;;;6192182;23;19920;-89
2023/07/11 03:43:12;;;;;;;;;;;16.00;76.20;;;;;;6191045;23;19919;-88
2023/07/11 03:45:45;;;;;;;;;;;16.00;76.30;;;;;;6191841;23;20123;-88
2023/07/11 03:48:10;;;;;;;;;;;15.90;76.40;;;;;;6183056;23;19927;-88
2023/07/11 03:50:36;;;;;;;;;;;15.90;76.50;;;;;;6191858;23;20627;-91
2023/07/11 03:53:02;;;;;;;;;;;15.80;76.50;;;;;;6190769;23;20234;-95
2023/07/11 03:55:27;;;;;;;;;;;15.80;76.40;;;;;;6192351;23;19951;-91
2023/07/11 03:57:56;;;;;;;;;;;15.80;76.10;;;;;;6207945;23;19920;-89
2023/07/11 04:00:22;;;;;;;;;;;15.80;75.90;;;;;;6191107;23;20357;-90
2023/07/11 04:02:47;;;;;;;;;;;15.80;75.70;;;;;;6189092;23;19920;-89
2023/07/11 04:05:13;;;;;;;;;;;15.80;75.70;;;;;;6192228;23;20389;-89
2023/07/11 04:07:41;;;;;;;;;;;15.80;75.70;;;;;;6182803;23;19924;-89
2023/07/11 04:10:07;;;;;;;;;;;15.80;75.90;;;;;;6191626;23;19920;-89
2023/07/11 04:12:33;;;;;;;;;;;15.80;75.80;;;;;;6190336;23;19926;-89
2023/07/11 04:14:59;;;;;;;;;;;15.80;75.70;;;;;;6191417;23;19924;-89
2023/07/11 04:17:25;;;;;;;;;;;15.80;75.80;;;;;;6181941;23;19950;-89
2023/07/11 04:19:51;;;;;;;;;;;15.80;75.50;;;;;;6191488;23;19941;-89
2023/07/11 04:22:16;;;;;;;;;;;15.80;75.70;;;;;;6189635;23;19919;-89
2023/07/11 04:24:42;;;;;;;;;;;15.90;75.30;;;;;;6192832;23;19972;-89
2023/07/11 04:27:08;;;;;;;;;;;15.90;75.70;;;;;;6182245;23;19922;-89
2023/07/11 04:29:33;;;;;;;;;;;16.00;75.70;;;;;;6192262;23;19927;-89
2023/07/11 04:31:59;;;;;;;;;;;16.00;75.40;;;;;;6167347;23;20404;-90
2023/07/11 04:34:25;;;;;;;;;;;16.00;75.50;;;;;;6165544;23;19924;-89
2023/07/11 04:36:50;;;;;;;;;;;16.00;75.50;;;;;;6184823;23;19920;-90
2023/07/11 04:39:16;;;;;;;;;;;16.00;76.00;;;;;;6191125;23;19919;-89
2023/07/11 04:41:42;;;;;;;;;;;16.00;75.90;;;;;;6192288;23;19920;-91
2023/07/11 04:44:07;;;;;;;;;;;16.10;75.80;;;;;;6190893;23;19919;-89
2023/07/11 04:46:33;;;;;;;;;;;16.10;76.10;;;;;;6186650;23;19922;-91
2023/07/11 04:48:59;;;;;;;;;;;16.10;75.70;;;;;;6188201;23;19943;-89
2023/07/11 04:51:24;;;;;;;;;;;16.20;76.10;;;;;;6191959;23;19920;-90
2023/07/11 04:53:50;;;;;;;;;;;16.20;76.10;;;;;;6214098;23;19919;-89
2023/07/11 04:56:16;;;;;;;;;;;16.30;75.80;;;;;;6189364;23;19919;-91
2023/07/11 04:58:42;;;;;;;;;;;16.40;76.60;;;;;;6184840;23;19919;-89
2023/07/11 05:01:09;;;;;;;;;;;16.40;76.50;;;;;;6241908;23;20029;-89
2023/07/11 05:03:34;;;;;;;;;;;16.40;76.50;;;;;;6204165;23;19943;-89
2023/07/11 05:06:01;;;;;;;;;;;16.40;76.10;;;;;;6189240;23;20326;-89
2023/07/11 05:08:27;;;;;;;;;;;16.40;76.50;;;;;;6179753;23;19990;-89
2023/07/11 05:10:53;;;;;;;;;;;16.50;76.00;;;;;;6187980;23;19965;-90
2023/07/11 05:13:20;;;;;;;;;;;16.50;75.80;;;;;;6212813;23;19919;-89
2023/07/11 05:15:48;;;;;;;;;;;16.50;76.00;;;;;;6189183;23;19924;-89
2023/07/11 05:18:14;;;;;;;;;;;16.60;75.50;;;;;;6179599;23;19927;-89
2023/07/11 05:20:39;;;;;;;;;;;16.70;75.50;;;;;;6189076;23;20322;-89
2023/07/11 05:23:05;;;;;;;;;;;16.90;75.20;;;;;;6152260;23;20354;-90
2023/07/11 05:25:31;;;;;;;;;;;17.00;75.00;;;;;;6190521;23;19923;-89
2023/07/11 05:27:57;;;;;;;;;;;17.20;74.60;;;;;;6182406;23;19946;-89
2023/07/11 05:30:22;;;;;;;;;;;17.20;74.40;;;;;;6190235;23;19924;-88
2023/07/11 05:32:48;;;;;;;;;;;17.40;74.10;;;;;;6188408;23;19927;-90
2023/07/11 05:35:14;;;;;;;;;;;17.40;74.00;;;;;;6190728;23;19954;-89
2023/07/11 05:37:39;;;;;;;;;;;17.50;74.50;;;;;;6186026;23;20420;-89
2023/07/11 05:40:08;;;;;;;;;;;17.50;74.10;;;;;;6169179;23;19942;-89
2023/07/11 05:42:34;;;;;;;;;;;17.60;74.00;;;;;;6191728;23;20349;-89
2023/07/11 05:44:59;;;;;;;;;;;17.70;73.80;;;;;;6193728;23;20002;-89
2023/07/11 05:47:25;;;;;;;;;;;17.80;73.70;;;;;;6184237;23;19965;-89
2023/07/11 05:49:51;;;;;;;;;;;17.80;73.40;;;;;;6194219;23;19973;-89
2023/07/11 05:52:17;;;;;;;;;;;17.90;73.50;;;;;;6213216;23;19982;-89
2023/07/11 05:54:42;;;;;;;;;;;18.00;73.40;;;;;;6192930;23;20360;-90
2023/07/11 05:57:08;;;;;;;;;;;18.00;73.20;;;;;;6184414;23;19916;-89
2023/07/11 05:59:33;;;;;;;;;;;18.00;73.60;;;;;;6193208;23;19939;-89
2023/07/11 06:01:59;;;;;;;;;;;18.00;74.10;;;;;;6193540;23;20350;-88
2023/07/11 06:04:25;;;;;;;;;;;18.10;73.60;;;;;;6192149;23;19923;-89
2023/07/11 06:06:50;;;;;;;;;;;18.10;73.20;;;;;;6185572;23;20553;-89
2023/07/11 06:09:20;;;;;;;;;;;18.20;74.00;;;;;;6186082;23;20132;-89
2023/07/11 06:11:47;;;;;;;;;;;18.20;74.10;;;;;;6188262;23;19920;-89
2023/07/11 06:14:13;;;;;;;;;;;18.30;73.20;;;;;;6186995;23;19920;-90
2023/07/11 06:16:42;;;;;;;;;;;18.30;73.30;;;;;;6182306;23;20006;-89
2023/07/11 06:19:08;;;;;;;;;;;18.30;73.00;;;;;;6184916;23;19920;-90
2023/07/11 06:21:34;;;;;;;;;;;18.40;73.80;;;;;;6188499;23;19931;-88
2023/07/11 06:23:59;;;;;;;;;;;18.50;73.10;;;;;;6187915;23;19920;-89
2023/07/11 06:26:25;;;;;;;;;;;18.60;73.30;;;;;;6135871;23;19964;-90
2023/07/11 06:28:51;;;;;;;;;;;18.70;73.00;;;;;;6173304;23;19920;-89
2023/07/11 06:31:16;;;;;;;;;;;18.80;72.90;;;;;;6188431;23;19931;-90
2023/07/11 06:33:45;;;;;;;;;;;18.90;73.30;;;;;;6138227;23;19920;-89
2023/07/11 06:36:11;;;;;;;;;;;19.10;72.30;;;;;;6162752;23;19920;-90
2023/07/11 06:38:37;;;;;;;;;;;19.20;71.30;;;;;;6181980;23;19919;-89
2023/07/11 06:41:03;;;;;;;;;;;19.20;71.20;;;;;;6138688;23;20360;-89
2023/07/11 06:43:29;;;;;;;;;;;19.40;71.30;;;;;;6134113;23;19920;-89
2023/07/11 06:45:55;;;;;;;;;;;19.50;70.50;;;;;;6133895;23;19932;-89
2023/07/11 06:48:22;;;;;;;;;;;19.60;70.50;;;;;;6159751;23;19923;-90
2023/07/11 06:50:57;;;;;;;;;;;19.70;69.70;;;;;;6162852;23;19947;-89
2023/07/11 06:53:25;;;;;;;;;;;19.90;69.50;;;;;;6161756;23;19920;-90
2023/07/11 06:55:51;;;;;;;;;;;20.00;69.60;;;;;;6188043;23;19919;-90
2023/07/11 06:58:20;;;;;;;;;;;20.10;69.70;;;;;;6148979;23;19924;-89
2023/07/11 07:01:06;;;;;;;;;;;20.10;69.70;;;;;;6182703;23;19955;-90
2023/07/11 07:03:32;;;;;;;;;;;20.30;70.40;;;;;;6146217;23;19948;-90
2023/07/11 07:06:05;;;;;;;;;;;20.30;69.20;;;;;;6188601;23;19952;-89
2023/07/11 07:08:30;;;;;;;;;;;20.40;69.60;;;;;;6152040;23;19927;-90
2023/07/11 07:10:58;;;;;;;;;;;20.40;69.80;;;;;;6163072;23;19951;-89
2023/07/11 07:13:24;;;;;;;;;;;20.50;69.00;;;;;;6186417;23;19924;-89
2023/07/11 07:15:51;;;;;;;;;;;20.60;69.10;;;;;;6187752;23;19927;-89
2023/07/11 07:18:17;;;;;;;;;;;20.60;68.50;;;;;;6178213;23;20474;-93
2023/07/11 07:20:44;;;;;;;;;;;20.70;68.90;;;;;;6158052;23;19927;-89
2023/07/11 07:23:10;;;;;;;;;;;20.70;68.20;;;;;;6154289;23;19970;-90
2023/07/11 07:25:36;;;;;;;;;;;20.80;68.70;;;;;;6187729;23;19919;-89
2023/07/11 07:28:02;;;;;;;;;;;20.80;70.00;;;;;;6129038;23;19920;-89
2023/07/11 07:30:28;;;;;;;;;;;20.90;68.40;;;;;;6187692;23;20258;-90
2023/07/11 07:32:54;;;;;;;;;;;21.00;68.60;;;;;;6186559;23;19951;-90
2023/07/11 07:35:19;;;;;;;;;;;21.00;67.50;;;;;;6162585;23;19920;-90
2023/07/11 07:37:46;;;;;;;;;;;21.00;68.10;;;;;;6206800;23;20261;-91
2023/07/11 07:40:11;;;;;;;;;;;21.10;68.40;;;;;;6187860;23;19926;-91
2023/07/11 07:42:39;;;;;;;;;;;21.10;68.50;;;;;;6185178;23;19953;-90
2023/07/11 07:45:05;;;;;;;;;;;21.10;68.20;;;;;;6187630;23;19920;-89
2023/07/11 07:47:31;;;;;;;;;;;21.10;67.70;;;;;;6153452;23;19995;-89
2023/07/11 07:49:57;;;;;;;;;;;21.10;68.40;;;;;;6188039;23;19947;-91
2023/07/11 07:52:23;;;;;;;;;;;21.20;68.00;;;;;;6136609;23;19928;-89
2023/07/11 07:54:49;;;;;;;;;;;21.30;67.80;;;;;;6187623;23;19927;-91
2023/07/11 07:57:14;;;;;;;;;;;21.30;67.50;;;;;;6178530;23;19924;-90
2023/07/11 07:59:40;;;;;;;;;;;21.30;67.60;;;;;;6137665;23;20312;-89
2023/07/11 08:02:07;;;;;;;;;;;21.30;68.30;;;;;;6145932;23;20361;-89
2023/07/11 08:04:33;;;;;;;;;;;21.40;68.80;;;;;;6139197;23;19973;-89
2023/07/11 08:06:59;;;;;;;;;;;21.50;68.40;;;;;;6154902;23;19982;-90
2023/07/11 08:09:25;;;;;;;;;;;21.50;69.20;;;;;;6136413;23;20266;-89
2023/07/11 08:11:51;;;;;;;;;;;21.50;68.30;;;;;;6187097;23;19999;-90
2023/07/11 08:14:16;;;;;;;;;;;21.60;68.30;;;;;;6161093;23;19998;-90
2023/07/11 08:16:42;;;;;;;;;;;21.70;67.10;;;;;;6181608;23;19916;-91
2023/07/11 08:19:08;;;;;;;;;;;21.70;67.00;;;;;;6208367;23;19924;-90
2023/07/11 08:21:38;;;;;;;;;;;21.80;66.70;;;;;;6187395;23;19943;-91
2023/07/11 08:24:06;;;;;;;;;;;21.90;67.10;;;;;;6185342;23;20381;-91
2023/07/11 08:26:32;;;;;;;;;;;21.90;67.20;;;;;;6182273;23;19916;-92
2023/07/11 08:28:59;;;;;;;;;;;21.90;66.30;;;;;;6144402;23;19920;-90
2023/07/11 08:31:25;;;;;;;;;;;21.90;67.00;;;;;;6211784;23;19924;-90
2023/07/11 08:33:51;;;;;;;;;;;21.90;67.90;;;;;;6185014;23;19920;-91
2023/07/11 08:36:16;;;;;;;;;;;22.00;69.00;;;;;;6184753;23;20484;-91
2023/07/11 08:38:45;;;;;;;;;;;22.00;67.80;;;;;;6157380;23;20342;-90
2023/07/11 08:41:14;;;;;;;;;;;22.10;66.70;;;;;;6186902;23;19923;-90
2023/07/11 08:43:43;;;;;;;;;;;22.20;66.60;;;;;;6150041;23;20283;-91
2023/07/11 08:46:27;;;;;;;;;;;22.30;66.40;;;;;;6156554;23;19927;-94
2023/07/11 08:48:57;;;;;;;;;;;22.40;66.80;;;;;;6183040;23;19994;-92
2023/07/11 08:51:34;;;;;;;;;;;22.50;67.10;;;;;;6187016;23;20346;-92
2023/07/11 08:54:06;;;;;;;;;;;22.70;67.30;;;;;;6159928;23;19955;-92
2023/07/11 08:56:36;;;;;;;;;;;22.80;66.30;;;;;;6184345;23;19926;-91
2023/07/11 08:59:22;;;;;;;;;;;23.00;66.50;;;;;;6140430;23;20246;-91
2023/07/11 09:01:58;;;;;;;;;;;23.10;65.50;;;;;;6158357;23;19999;-92
2023/07/11 09:04:26;;;;;;;;;;;23.20;62.60;;;;;;6143780;23;19920;-92
2023/07/11 09:06:54;;;;;;;;;;;23.30;63.40;;;;;;6180816;23;19919;-92
2023/07/11 09:09:41;;;;;;;;;;;23.30;63.30;;;;;;6186146;23;20002;-90
2023/07/11 09:12:15;;;;;;;;;;;23.40;62.30;;;;;;6172769;23;20224;-93
2023/07/11 09:14:47;;;;;;;;;;;23.50;63.00;;;;;;6141569;23;19946;-91
2023/07/11 09:17:15;;;;;;;;;;;23.60;62.20;;;;;;6154721;23;19920;-92
2023/07/11 09:19:42;;;;;;;;;;;23.80;62.00;;;;;;6188680;23;19926;-92
2023/07/11 09:22:08;;;;;;;;;;;23.90;61.90;;;;;;6184344;23;20339;-93
2023/07/11 09:24:36;;;;;;;;;;;24.00;62.00;;;;;;6189024;23;20047;-90
2023/07/11 09:27:52;;;;;;;;;;;24.00;60.80;;;;;;6181546;23;19920;-93
2023/07/11 09:30:26;;;;;;;;;;;24.10;61.30;;;;;;6178206;23;19924;-92
2023/07/11 09:32:52;;;;;;;;;;;24.30;61.70;;;;;;6172229;23;19920;-92
2023/07/11 09:35:24;;;;;;;;;;;24.40;61.60;;;;;;6188354;23;20338;-93
2023/07/11 09:37:53;;;;;;;;;;;24.40;61.60;;;;;;6151810;23;19925;-92
2023/07/11 09:40:22;;;;;;;;;;;24.50;60.30;;;;;;6178361;23;19927;-92
2023/07/11 09:42:52;;;;;;;;;;;24.50;60.30;;;;;;6185979;23;19920;-93
2023/07/11 09:45:28;;;;;;;;;;;24.50;60.00;;;;;;6158122;23;19924;-90
2023/07/11 09:48:06;;;;;;;;;;;24.60;60.00;;;;;;6131799;23;19927;-92
2023/07/11 09:50:41;;;;;;;;;;;24.60;61.10;;;;;;6188228;23;19920;-92
2023/07/11 09:53:33;;;;;;;;;;;24.80;59.90;;;;;;6185882;23;19920;-90
2023/07/11 09:56:00;;;;;;;;;;;24.70;60.00;;;;;;6183041;23;20309;-89
2023/07/11 09:58:31;;;;;;;;;;;24.70;60.00;;;;;;6154667;23;19920;-90
2023/07/11 10:01:02;;;;;;;;;;;24.80;60.70;;;;;;6163868;23;20278;-91
2023/07/11 10:03:29;;;;;;;;;;;24.90;61.40;;;;;;6186805;23;19920;-93
2023/07/11 10:05:55;;;;;;;;;;;25.00;60.60;;;;;;6188433;23;20331;-90
2023/07/11 10:08:22;;;;;;;;;;;25.00;60.90;;;;;;6118935;23;19924;-91
2023/07/11 10:10:53;;;;;;;;;;;25.00;60.60;;;;;;6146493;23;19920;-91
2023/07/11 10:13:21;;;;;;;;;;;25.10;60.00;;;;;;6154091;23;20003;-90
2023/07/11 10:15:48;;;;;;;;;;;25.20;59.70;;;;;;6153236;23;19920;-90
2023/07/11 10:18:22;;;;;;;;;;;25.20;59.70;;;;;;6178857;23;19965;-92
2023/07/11 10:20:49;;;;;;;;;;;25.20;59.00;;;;;;6188306;23;19947;-89
2023/07/11 10:23:21;;;;;;;;;;;25.20;59.20;;;;;;6186220;23;19920;-90
2023/07/11 10:26:06;;;;;;;;;;;25.10;60.00;;;;;;6188691;23;19974;-91
2023/07/11 10:28:34;;;;;;;;;;;25.00;59.90;;;;;;6154101;23;19919;-90
2023/07/11 10:31:10;;;;;;;;;;;25.00;59.60;;;;;;6188237;23;19924;-92
2023/07/11 10:33:45;;;;;;;;;;;25.00;59.70;;;;;;6153345;23;19924;-91
2023/07/11 10:36:19;;;;;;;;;;;25.00;60.00;;;;;;6158763;23;19920;-94
2023/07/11 10:38:56;;;;;;;;;;;25.10;59.60;;;;;;6184330;23;19990;-93
2023/07/11 10:41:25;;;;;;;;;;;25.20;59.80;;;;;;6162824;23;19920;-93
2023/07/11 10:43:57;;;;;;;;;;;25.30;60.80;;;;;;6186437;23;19927;-93
2023/07/11 10:46:41;;;;;;;;;;;25.20;59.00;;;;;;6159275;23;19920;-91
2023/07/11 10:49:29;;;;;;;;;;;;;;;;;;;;;
2023/07/11 10:52:19;;;;;;;;;;;25.20;60.40;;;;;;6188226;23;20339;-91
2023/07/11 10:54:54;;;;;;;;;;;25.20;59.90;;;;;;6108693;23;19944;-89
2023/07/11 10:57:40;;;;;;;;;;;25.20;60.20;;;;;;6160779;23;19998;-90
2023/07/11 11:00:16;;;;;;;;;;;25.30;60.30;;;;;;6145843;23;19942;-91
2023/07/11 11:02:57;;;;;;;;;;;25.30;59.00;;;;;;6171815;23;19919;-90
2023/07/11 11:05:28;;;;;;;;;;;25.30;59.60;;;;;;6187821;23;20335;-92
2023/07/11 11:08:34;;;;;;;;;;;25.30;58.70;;;;;;6178453;23;19950;-89
2023/07/11 11:11:18;;;;;;;;;;;25.20;59.40;;;;;;6097203;23;20832;-92
2023/07/11 11:14:09;;;;;;;;;;;25.20;60.30;;;;;;6096004;23;19921;-91
2023/07/11 11:16:40;;;;;;;;;;;25.20;59.10;;;;;;6140335;23;19916;-94
2023/07/11 11:19:24;;;;;;;;;;;25.30;58.60;;;;;;6182154;23;19920;-90
2023/07/11 11:21:56;;;;;;;;;;;25.40;58.20;;;;;;6212177;23;20342;-88
2023/07/11 11:24:41;;;;;;;;;;;25.40;58.60;;;;;;6147407;23;19947;-91
2023/07/11 11:27:36;;;;;;;;;;;25.40;58.80;;;;;;6202614;23;19923;-90
2023/07/11 11:30:20;;;;;;;;;;;25.30;59.10;;;;;;6103715;23;19932;-90
2023/07/11 11:32:52;;;;;;;;;;;25.30;59.50;;;;;;6206047;23;19924;-90
2023/07/11 11:35:37;;;;;;;;;;;25.30;59.50;;;;;;6209361;23;20396;-92
2023/07/11 11:38:08;;;;;;;;;;;25.40;59.70;;;;;;6202493;23;19920;-92
2023/07/11 11:40:37;;;;;;;;;;;25.30;59.70;;;;;;6184726;23;19927;-92
2023/07/11 11:43:10;;;;;;;;;;;25.30;59.70;;;;;;6183320;23;20297;-91
2023/07/11 11:45:36;;;;;;;;;;;25.40;60.00;;;;;;6184167;23;19935;-91
2023/07/11 11:48:02;;;;;;;;;;;25.40;59.80;;;;;;6150967;23;19924;-91
2023/07/11 11:50:32;;;;;;;;;;;25.60;59.70;;;;;;6182975;23;19930;-91
2023/07/11 11:53:22;;;;;;;;;;;25.70;60.30;;;;;;6157869;23;19974;-90
2023/07/11 11:55:56;;;;;;;;;;;25.80;60.00;;;;;;6171526;23;20343;-92
2023/07/11 11:58:23;;;;;;;;;;;25.80;58.80;;;;;;6149847;23;19924;-94
2023/07/11 12:00:50;;;;;;;;;;;25.70;60.10;;;;;;6182915;23;19934;-91
2023/07/11 12:03:18;;;;;;;;;;;25.60;59.10;;;;;;6156308;23;19954;-91
2023/07/11 12:05:49;;;;;;;;;;;25.60;59.90;;;;;;6183054;23;19928;-91
2023/07/11 12:08:25;;;;;;;;;;;25.50;59.00;;;;;;6174410;23;19931;-90
2023/07/11 12:11:06;;;;;;;;;;;25.50;58.80;;;;;;6182720;23;19930;-91
2023/07/11 12:13:33;;;;;;;;;;;25.40;60.20;;;;;;6181849;23;19924;-89
2023/07/11 12:16:07;;;;;;;;;;;25.40;59.50;;;;;;6158852;23;19970;-90
2023/07/11 12:18:38;;;;;;;;;;;25.40;59.10;;;;;;6175304;23;19946;-90
2023/07/11 12:21:10;;;;;;;;;;;25.30;59.70;;;;;;6183193;23;20028;-90
2023/07/11 12:23:39;;;;;;;;;;;25.20;59.80;;;;;;6181415;23;19924;-90
2023/07/11 12:26:11;;;;;;;;;;;25.30;59.30;;;;;;6183641;23;19924;-90
2023/07/11 12:28:37;;;;;;;;;;;25.30;59.90;;;;;;6176712;23;19935;-91
2023/07/11 12:31:15;;;;;;;;;;;25.30;59.40;;;;;;6183646;23;19920;-90
2023/07/11 12:33:43;;;;;;;;;;;25.40;59.70;;;;;;6181873;23;19955;-90
2023/07/11 12:36:12;;;;;;;;;;;25.50;60.50;;;;;;6182919;23;20417;-91
2023/07/11 12:38:45;;;;;;;;;;;25.50;60.70;;;;;;6178032;23;20007;-91
2023/07/11 12:41:18;;;;;;;;;;;25.60;60.40;;;;;;6183062;23;19924;-92
2023/07/11 12:43:47;;;;;;;;;;;25.60;60.40;;;;;;6182837;23;19920;-90
2023/07/11 12:46:12;;;;;;;;;;;25.60;60.40;;;;;;6133421;23;19924;-91
2023/07/11 12:48:42;;;;;;;;;;;25.80;60.90;;;;;;6176610;23;20401;-89
2023/07/11 12:51:22;;;;;;;;;;;25.80;60.40;;;;;;6158834;23;20648;-91
2023/07/11 12:53:50;;;;;;;;;;;25.80;59.20;;;;;;6182135;23;19920;-89
2023/07/11 12:56:16;;;;;;;;;;;25.80;59.30;;;;;;6182370;23;19946;-91
2023/07/11 12:58:41;;;;;;;;;;;25.70;59.30;;;;;;6166483;23;20319;-89
2023/07/11 13:01:12;;;;;;;;;;;25.60;58.80;;;;;;6183990;23;19933;-91
2023/07/11 13:03:38;;;;;;;;;;;25.60;59.10;;;;;;6148874;23;19954;-90
2023/07/11 13:06:07;;;;;;;;;;;25.50;58.40;;;;;;6156219;23;19928;-91
2023/07/11 13:08:34;;;;;;;;;;;25.60;59.10;;;;;;6152279;23;19986;-90
2023/07/11 13:11:02;;;;;;;;;;;25.70;58.70;;;;;;6185821;23;19924;-91
2023/07/11 13:13:40;;;;;;;;;;;25.80;58.30;;;;;;6182875;23;19927;-94
2023/07/11 13:16:06;;;;;;;;;;;25.80;58.30;;;;;;6183719;23;19947;-92
2023/07/11 13:18:34;;;;;;;;;;;26.00;57.90;;;;;;6174532;23;19924;-90
2023/07/11 13:21:01;;;;;;;;;;;26.00;58.30;;;;;;6182956;23;20020;-93
2023/07/11 13:23:31;;;;;;;;;;;26.10;58.20;;;;;;6180179;23;19920;-90
2023/07/11 13:25:57;;;;;;;;;;;26.20;57.60;;;;;;6183794;23;19951;-91
2023/07/11 13:28:25;;;;;;;;;;;26.40;57.70;;;;;;6173879;23;19920;-93
2023/07/11 13:30:55;;;;;;;;;;;26.30;57.30;;;;;;6183497;23;20357;-90
2023/07/11 13:33:21;;;;;;;;;;;26.10;57.60;;;;;;6180144;23;20596;-91
2023/07/11 13:36:10;;;;;;;;;;;26.00;58.70;;;;;;6133945;23;19950;-91
2023/07/11 13:38:39;;;;;;;;;;;25.90;58.20;;;;;;6175884;23;19964;-89
2023/07/11 13:41:11;;;;;;;;;;;25.80;58.70;;;;;;6182772;23;20369;-90
2023/07/11 13:43:38;;;;;;;;;;;25.80;58.70;;;;;;6183952;23;19924;-89
2023/07/11 13:46:08;;;;;;;;;;;25.80;58.60;;;;;;6184842;23;19966;-89
2023/07/11 13:48:34;;;;;;;;;;;25.80;59.80;;;;;;6175781;23;19948;-89
2023/07/11 13:51:23;;;;;;;;;;;25.80;58.30;;;;;;6159176;23;20286;-89
2023/07/11 13:53:57;;;;;;;;;;;25.80;59.10;;;;;;6182269;23;20367;-89
2023/07/11 13:56:23;;;;;;;;;;;25.80;58.90;;;;;;6155989;23;19928;-90
2023/07/11 13:58:51;;;;;;;;;;;25.80;58.30;;;;;;6178940;23;19963;-90
2023/07/11 14:01:18;;;;;;;;;;;25.70;59.40;;;;;;6184765;23;19924;-88
2023/07/11 14:03:44;;;;;;;;;;;25.60;59.60;;;;;;6182640;23;20258;-88
2023/07/11 14:06:11;;;;;;;;;;;25.60;60.20;;;;;;6158569;23;19931;-90
2023/07/11 14:08:36;;;;;;;;;;;25.60;60.90;;;;;;6176608;23;19935;-90
2023/07/11 14:11:04;;;;;;;;;;;25.50;61.30;;;;;;6159368;23;20655;-91
2023/07/11 14:13:30;;;;;;;;;;;25.50;61.60;;;;;;6183902;23;19919;-91
2023/07/11 14:15:58;;;;;;;;;;;25.60;61.90;;;;;;6159885;23;19930;-89
2023/07/11 14:18:24;;;;;;;;;;;25.60;61.90;;;;;;6175462;23;20279;-89
2023/07/11 14:20:50;;;;;;;;;;;25.60;62.20;;;;;;6184068;23;19919;-92
2023/07/11 14:23:25;;;;;;;;;;;25.60;62.20;;;;;;6157697;23;19989;-89
2023/07/11 14:25:51;;;;;;;;;;;25.60;61.70;;;;;;6184544;23;19967;-92
2023/07/11 14:28:17;;;;;;;;;;;25.60;61.20;;;;;;6175121;23;19927;-90